KHYS/HYS METAR and TAF weather

Enter ICAO airport designator
Station Type Date Time Source
KHYS METAR 2022/01/27 22:56 UTC NOAA

KHYS 272256Z AUTO 34014KT 10SM BKN060 04/M04 A3036 RMK AO2 SLP302 T00441044


Station Type Date Time Source
KHYS Decoded METAR 2022/01/27 22:56 UTC NOAA

Hays, Hays Regional Airport, KS, United States (KHYS) 38-51N 099-16W
Jan 27, 2022 - 05:56 PM EST / 2022.01.27 2256 UTC
Wind: from the NNW (340 degrees) at 16 MPH (14 KT):0
Visibility: 10 mile(s):0
Sky conditions: mostly cloudy
Temperature: 39.9 F (4.4 C)
Dew Point: 24.1 F (-4.4 C)
Relative Humidity: 52%
Pressure (altimeter): 30.36 in. Hg (1028 hPa)
ob: KHYS 272256Z AUTO 34014KT 10SM BKN060 04/M04 A3036 RMK AO2 SLP302 T00441044
cycle: 23

Station Type Date Time Source
KHYS TAF 2022/01/27 18:22 UTC NOAA

TAF KHYS 271720Z 2718/2818 31009KT P6SM OVC090
FM272200 35015G26KT P6SM BKN200
FM272300 35010KT P6SM BKN100

Example: see airport list